createdAt,value
2019-04-11T00:02:36.435Z,7.03
2019-04-11T00:07:45.122Z,7.52
2019-04-11T00:12:54.761Z,7.79
2019-04-11T00:18:02.783Z,8.87
2019-04-11T00:23:10.140Z,8.06
2019-04-11T00:28:18.430Z,8.60
2019-04-11T00:33:38.984Z,8.50
2019-04-11T00:38:27.775Z,9.29
2019-04-11T00:43:40.410Z,10.10
2019-04-11T00:48:45.989Z,8.07
2019-04-11T00:53:52.775Z,7.99
2019-04-11T00:59:02.361Z,7.54
2019-04-11T01:04:09.664Z,8.28
2019-04-11T01:09:18.045Z,7.52
2019-04-11T01:14:27.863Z,8.48
2019-04-11T01:19:35.150Z,7.55
2019-04-11T01:24:43.980Z,7.40
2019-04-11T01:29:51.605Z,7.95
2019-04-11T01:35:01.230Z,7.15
2019-04-11T01:40:09.678Z,9.68
2019-04-11T01:45:17.029Z,7.75
2019-04-11T01:50:25.165Z,7.75
2019-04-11T01:55:32.736Z,7.32
2019-04-11T02:00:42.058Z,6.94
2019-04-11T02:05:49.647Z,8.03
2019-04-11T02:10:59.246Z,9.89
2019-04-11T02:16:06.250Z,7.70
2019-04-11T02:21:15.673Z,9.20
2019-04-11T02:26:23.074Z,8.03
2019-04-11T02:31:32.651Z,7.65
2019-04-11T02:36:40.534Z,9.10
2019-04-11T02:41:48.150Z,8.19
2019-04-11T02:47:15.760Z,8.51
2019-04-11T02:51:58.606Z,8.19
2019-04-11T02:57:05.806Z,7.76
2019-04-11T03:02:16.911Z,8.67
2019-04-11T03:07:22.696Z,9.70
2019-04-11T03:12:31.669Z,9.84
2019-04-11T03:17:42.818Z,7.75
2019-04-11T03:22:51.138Z,8.90
2019-04-11T03:27:54.400Z,8.90
2019-04-11T03:33:47.105Z,9.70
2019-04-11T03:38:23.166Z,8.80
2019-04-11T03:43:30.265Z,10.56
2019-04-11T03:48:36.868Z,9.23
2019-04-11T03:53:37.065Z,9.76
2019-04-11T03:58:43.879Z,10.46
2019-04-11T04:03:53.149Z,9.20
2019-04-11T04:09:00.598Z,9.76
2019-04-11T04:14:08.207Z,9.29
2019-04-11T04:19:16.321Z,10.12
2019-04-11T04:24:25.097Z,10.52
2019-04-11T04:29:32.438Z,11.22
2019-04-11T04:34:40.308Z,12.72
2019-04-11T04:39:48.166Z,11.18
2019-04-11T04:44:58.112Z,10.11
2019-04-11T04:50:06.194Z,10.87
2019-04-11T04:55:12.900Z,10.28
2019-04-11T05:00:20.787Z,12.12
2019-04-11T05:05:29.266Z,13.59
2019-04-11T05:10:38.064Z,14.87
2019-04-11T05:15:45.378Z,14.71
2019-04-11T05:20:53.021Z,12.29
2019-04-11T05:26:01.667Z,14.35
2019-04-11T05:31:10.215Z,11.85
2019-04-11T05:36:18.710Z,13.55
2019-04-11T05:41:27.127Z,12.06
2019-04-11T05:51:45.723Z,12.07
2019-04-11T05:56:53.885Z,14.62
2019-04-11T06:02:05.267Z,14.52
2019-04-11T06:07:09.914Z,13.31
2019-04-11T06:12:17.071Z,12.12
2019-04-11T06:17:24.082Z,12.17
2019-04-11T06:22:33.898Z,12.46
2019-04-11T06:27:42.695Z,13.45
2019-04-11T06:32:48.886Z,13.01
2019-04-11T06:37:59.100Z,14.79
2019-04-11T06:43:06.039Z,15.58
2019-04-11T06:48:15.632Z,16.61
2019-04-11T06:53:23.790Z,15.08
2019-04-11T06:58:31.799Z,15.60
2019-04-11T07:03:39.143Z,19.19
2019-04-11T07:08:47.697Z,13.86
2019-04-11T07:13:57.351Z,13.45
2019-04-11T07:19:04.890Z,15.50
2019-04-11T07:24:11.798Z,13.96
2019-04-11T07:29:19.457Z,13.14
2019-04-11T07:34:31.240Z,13.21
2019-04-11T07:39:35.754Z,14.58
2019-04-11T07:44:45.167Z,12.37
2019-04-11T07:49:53.723Z,14.97
2019-04-11T07:55:00.415Z,11.01
2019-04-11T08:00:09.138Z,13.57
2019-04-11T08:05:17.507Z,12.96
2019-04-11T08:10:27.164Z,13.93
2019-04-11T08:15:34.146Z,10.86
2019-04-11T08:20:43.567Z,11.31
2019-04-11T08:25:50.788Z,13.74
2019-04-11T08:30:59.349Z,14.95
2019-04-11T08:36:07.866Z,17.18
2019-04-11T08:41:17.450Z,11.61
2019-04-11T08:46:24.661Z,11.06
2019-04-11T08:51:33.640Z,9.70
2019-04-11T08:56:41.109Z,9.63
2019-04-11T09:01:49.643Z,11.13
2019-04-11T09:06:58.155Z,12.67
2019-04-11T09:12:06.807Z,11.81
2019-04-11T09:17:16.389Z,11.72
2019-04-11T09:22:23.434Z,11.45
2019-04-11T09:27:32.932Z,13.01
2019-04-11T09:32:40.485Z,11.15
2019-04-11T09:37:49.627Z,11.60
2019-04-11T09:42:57.596Z,12.39
2019-04-11T09:48:12.498Z,10.68
2019-04-11T09:53:14.195Z,10.81
2019-04-11T09:58:21.423Z,10.46
2019-04-11T10:03:29.908Z,10.90
2019-04-11T10:08:39.532Z,8.93
2019-04-11T10:13:46.865Z,9.33
2019-04-11T10:18:55.686Z,11.79
2019-04-11T10:24:03.280Z,8.27
2019-04-11T10:29:11.899Z,10.58
2019-04-11T10:34:21.559Z,10.29
2019-04-11T10:39:29.151Z,8.15
2019-04-11T10:44:36.500Z,10.23
2019-04-11T10:49:46.194Z,9.84
2019-04-11T10:54:53.301Z,9.47
2019-04-11T11:00:03.026Z,11.98
2019-04-11T11:05:09.728Z,9.87
2019-04-11T11:10:19.470Z,13.12
2019-04-11T11:15:27.510Z,9.63
2019-04-11T11:20:38.662Z,11.23
2019-04-11T11:25:47.520Z,9.31
2019-04-11T11:30:51.873Z,12.71
2019-04-11T11:36:01.093Z,10.14
2019-04-11T11:41:07.901Z,9.54
2019-04-11T11:46:14.797Z,11.41
2019-04-11T11:51:27.832Z,11.57
2019-04-11T11:56:31.744Z,10.91
2019-04-11T12:01:42.276Z,10.67
2019-04-11T12:06:48.983Z,10.32
2019-04-11T12:11:56.998Z,10.31
2019-04-11T12:17:06.448Z,11.65
2019-04-11T12:22:12.460Z,13.05
2019-04-11T12:27:20.942Z,11.71
2019-04-11T12:32:30.456Z,13.39
2019-04-11T12:37:37.905Z,12.24
2019-04-11T12:42:46.356Z,10.55
2019-04-11T12:47:55.178Z,11.69
2019-04-11T12:53:03.814Z,10.74
2019-04-11T12:58:12.310Z,13.52
2019-04-11T13:03:21.173Z,13.91
2019-04-11T13:08:37.260Z,10.65
2019-04-11T13:13:35.754Z,11.15
2019-04-11T13:18:44.319Z,11.84
2019-04-11T13:23:53.131Z,10.82
2019-04-11T13:29:01.666Z,9.03
2019-04-11T13:34:11.255Z,10.99
2019-04-11T13:39:18.648Z,12.90
2019-04-11T13:44:27.319Z,15.00
2019-04-11T13:49:35.850Z,11.74
2019-04-11T13:54:44.541Z,12.43
2019-04-11T13:59:53.078Z,12.62
2019-04-11T14:05:01.603Z,10.59
2019-04-11T14:10:10.198Z,11.05
2019-04-11T14:15:18.878Z,11.17
2019-04-11T14:20:29.491Z,9.93
2019-04-11T14:25:35.731Z,10.44
2019-04-11T14:30:44.359Z,11.96
2019-04-11T14:35:53.166Z,11.45
2019-04-11T14:41:02.153Z,14.92
2019-04-11T14:46:09.950Z,11.88
2019-04-11T14:51:18.688Z,12.29
2019-04-11T14:56:27.448Z,9.71
2019-04-11T15:01:36.204Z,11.54
2019-04-11T15:06:45.243Z,10.67
2019-04-11T15:11:52.953Z,12.11
2019-04-11T15:17:01.419Z,10.76
2019-04-11T15:22:10.326Z,11.05
2019-04-11T15:27:19.013Z,13.99
2019-04-11T15:32:28.144Z,11.71
2019-04-11T15:37:36.781Z,12.81
2019-04-11T15:42:45.471Z,13.19
2019-04-11T15:47:54.036Z,11.80
2019-04-11T15:53:06.561Z,10.01
2019-04-11T15:58:12.668Z,13.23
2019-04-11T16:03:18.858Z,9.90
2019-04-11T16:08:27.386Z,11.92
2019-04-11T16:13:36.078Z,9.63
2019-04-11T16:18:46.971Z,10.48
2019-04-11T16:23:54.683Z,13.49
2019-04-11T16:29:00.957Z,11.38
2019-04-11T16:34:09.469Z,12.32
2019-04-11T16:39:19.902Z,11.02
2019-04-11T16:44:26.336Z,12.66
2019-04-11T16:49:34.921Z,10.66
2019-04-11T16:54:43.707Z,11.52
2019-04-11T16:59:52.260Z,12.27
2019-04-11T17:05:00.852Z,12.63
2019-04-11T17:10:11.791Z,11.54
2019-04-11T17:15:10.417Z,12.23
2019-04-11T17:20:19.053Z,12.70
2019-04-11T17:25:27.945Z,12.52
2019-04-11T17:30:36.732Z,11.98
2019-04-11T17:35:45.483Z,12.27
2019-04-11T17:40:54.110Z,10.93
2019-04-11T17:46:02.619Z,10.18
2019-04-11T17:51:11.170Z,12.07
2019-04-11T17:56:19.705Z,10.79
2019-04-11T18:01:29.474Z,11.71
2019-04-11T18:06:37.984Z,11.01
2019-04-11T18:11:46.559Z,10.99
2019-04-11T18:16:55.170Z,12.57
2019-04-11T18:22:08.108Z,11.69
2019-04-11T18:27:11.905Z,10.84
2019-04-11T18:32:20.471Z,11.66
2019-04-11T18:37:29.721Z,12.07
2019-04-11T18:42:37.234Z,10.66
2019-04-11T18:47:45.751Z,10.75
2019-04-11T18:52:54.286Z,10.94
2019-04-11T18:58:04.542Z,11.32
2019-04-11T19:03:11.094Z,9.93
2019-04-11T19:08:19.717Z,10.91
2019-04-11T19:13:28.348Z,9.55
2019-04-11T19:18:36.970Z,10.85
2019-04-11T19:23:45.696Z,11.47
2019-04-11T19:28:55.223Z,9.77
2019-04-11T19:34:04.625Z,10.16
2019-04-11T19:39:13.517Z,11.29
2019-04-11T19:44:19.312Z,9.65
2019-04-11T19:49:28.924Z,10.29
2019-04-11T19:54:35.133Z,10.19
2019-04-11T19:59:43.741Z,10.51
2019-04-11T20:04:52.327Z,10.97
2019-04-11T20:10:01.679Z,12.63
2019-04-11T20:15:09.226Z,11.12
2019-04-11T20:20:17.904Z,11.79
2019-04-11T20:25:26.526Z,10.92
2019-04-11T20:30:35.059Z,11.19
2019-04-11T20:35:43.835Z,11.54
2019-04-11T20:40:53.248Z,11.13
2019-04-11T20:46:00.750Z,12.73
2019-04-11T20:51:09.394Z,11.90
2019-04-11T20:56:24.108Z,12.23
2019-04-11T21:01:26.253Z,9.66
2019-04-11T21:06:34.387Z,11.20
2019-04-11T21:11:42.917Z,9.92
2019-04-11T21:16:51.646Z,10.96
2019-04-11T21:22:00.208Z,11.22
2019-04-11T21:27:08.831Z,10.44
2019-04-11T21:32:17.370Z,9.99
2019-04-11T21:37:25.896Z,10.20
2019-04-11T21:42:36.113Z,11.01
2019-04-11T21:47:42.677Z,9.64
2019-04-11T21:52:51.243Z,9.38
2019-04-11T21:57:59.833Z,8.97
2019-04-11T22:03:08.491Z,11.11
2019-04-11T22:08:17.066Z,8.90
2019-04-11T22:13:25.850Z,9.12
2019-04-11T22:18:34.386Z,10.72
2019-04-11T22:23:48.663Z,9.55
2019-04-11T22:28:54.938Z,10.15
2019-04-11T22:33:59.227Z,8.97
2019-04-11T22:39:07.820Z,9.58
2019-04-11T22:44:16.396Z,9.48
2019-04-11T22:49:24.913Z,9.50
2019-04-11T22:54:33.390Z,9.22
2019-04-11T22:59:44.372Z,9.80
2019-04-11T23:04:50.057Z,8.71
2019-04-11T23:09:58.676Z,9.54
2019-04-11T23:15:07.314Z,9.34
2019-04-11T23:20:15.888Z,9.84
2019-04-11T23:25:24.403Z,10.41
2019-04-11T23:30:33.486Z,10.12
2019-04-11T23:35:42.087Z,10.81
2019-04-11T23:40:51.210Z,9.95
2019-04-11T23:45:58.883Z,9.06
2019-04-11T23:51:07.534Z,10.09
2019-04-11T23:56:16.032Z,10.67
